Time;durP1;ratioP1;P1;durP2;ratioP2;P2;SDS_P1;SDS_P2;PMS_P1;PMS_P2;Temp;Humidity;BMP_temperature;BMP_pressure;BME280_temperature;BME280_humidity;BME280_pressure;Samples;Min_cycle;Max_cycle;Signal;HPM_P1;HPM_P2
2023/10/10 00:00:04;;;;;;;1.30;1.20;;;;;;;;;;5114937;28;20443;-62
2023/10/10 00:02:33;;;;;;;0.90;0.90;;;;;;;;;;5114467;28;20474;-62
2023/10/10 00:05:08;;;;;;;0.80;0.80;;;;;;;;;;5114636;28;20577;-62
2023/10/10 00:07:35;;;;;;;1.53;1.43;;;;;;;;;;5114324;28;20499;-62
2023/10/10 00:10:03;;;;;;;0.83;0.83;;;;;;;;;;5114386;28;20438;-62
2023/10/10 00:12:32;;;;;;;1.70;1.60;;;;;;;;;;5114043;28;20530;-62
2023/10/10 00:15:02;;;;;;;0.80;0.80;;;;;;;;;;5114446;28;20494;-62
2023/10/10 00:17:34;;;;;;;0.70;0.70;;;;;;;;;;5114205;28;20446;-62
2023/10/10 00:20:08;;;;;;;0.83;0.83;;;;;;;;;;5114611;28;20781;-62
2023/10/10 00:22:36;;;;;;;0.90;0.90;;;;;;;;;;5114550;28;20482;-62
2023/10/10 00:25:12;;;;;;;0.80;0.80;;;;;;;;;;5114112;28;20446;-62
2023/10/10 00:27:43;;;;;;;0.80;0.80;;;;;;;;;;5114142;28;20433;-62
2023/10/10 00:30:11;;;;;;;3.07;2.90;;;;;;;;;;5114191;28;20422;-62
2023/10/10 00:32:42;;;;;;;1.00;0.90;;;;;;;;;;5113745;28;20485;-62
2023/10/10 00:35:11;;;;;;;1.50;1.40;;;;;;;;;;5114072;28;20465;-62
2023/10/10 00:37:38;;;;;;;0.70;0.70;;;;;;;;;;5114292;28;20471;-62
2023/10/10 00:40:09;;;;;;;2.00;1.37;;;;;;;;;;5113986;28;20439;-62
2023/10/10 00:42:41;;;;;;;0.77;0.77;;;;;;;;;;5114229;28;20509;-62
2023/10/10 00:45:12;;;;;;;3.13;1.77;;;;;;;;;;5114161;28;20439;-62
2023/10/10 00:47:42;;;;;;;0.70;0.70;;;;;;;;;;5113426;28;20479;-62
2023/10/10 00:50:15;;;;;;;1.00;1.00;;;;;;;;;;5113934;28;20430;-62
2023/10/10 00:52:44;;;;;;;1.00;1.00;;;;;;;;;;5113886;28;20814;-62
2023/10/10 00:55:12;;;;;;;1.77;1.67;;;;;;;;;;5113488;28;20436;-62
2023/10/10 00:57:40;;;;;;;1.57;1.50;;;;;;;;;;5113659;28;20436;-62
2023/10/10 01:00:09;;;;;;;2.37;2.27;;;;;;;;;;5112854;28;20445;-62
2023/10/10 01:02:38;;;;;;;2.00;1.90;;;;;;;;;;5113259;28;20493;-62
2023/10/10 01:05:12;;;;;;;1.10;1.00;;;;;;;;;;5113703;28;20437;-62
2023/10/10 01:07:43;;;;;;;0.70;0.70;;;;;;;;;;5113761;28;20418;-62
2023/10/10 01:10:12;;;;;;;1.30;1.17;;;;;;;;;;5114055;28;20421;-62
2023/10/10 01:12:40;;;;;;;1.07;1.07;;;;;;;;;;5113123;28;20512;-62
2023/10/10 01:15:14;;;;;;;0.90;0.90;;;;;;;;;;5113059;28;20445;-62
2023/10/10 01:17:43;;;;;;;0.90;0.90;;;;;;;;;;5113268;28;20515;-62
2023/10/10 01:20:19;;;;;;;0.77;0.77;;;;;;;;;;5113610;28;20485;-62
2023/10/10 01:22:48;;;;;;;0.80;0.80;;;;;;;;;;5113499;28;20797;-62
2023/10/10 01:25:41;;;;;;;0.80;0.80;;;;;;;;;;5113276;28;20443;-62
2023/10/10 01:28:22;;;;;;;0.70;0.70;;;;;;;;;;5113808;28;20446;-62
2023/10/10 01:30:59;;;;;;;1.43;1.33;;;;;;;;;;5113580;28;20422;-62
2023/10/10 01:33:35;;;;;;;0.80;0.80;;;;;;;;;;5113536;28;20568;-62
2023/10/10 01:36:11;;;;;;;0.70;0.70;;;;;;;;;;5113320;28;20451;-62
2023/10/10 01:38:55;;;;;;;3.23;2.97;;;;;;;;;;5113584;28;20422;-62
2023/10/10 01:41:23;;;;;;;0.87;0.87;;;;;;;;;;5113367;28;20974;-62
2023/10/10 01:43:53;;;;;;;2.07;1.87;;;;;;;;;;5113726;28;20470;-62
2023/10/10 01:46:27;;;;;;;1.90;1.80;;;;;;;;;;5112890;28;20421;-62
2023/10/10 01:48:54;;;;;;;0.90;0.90;;;;;;;;;;5113009;28;20567;-62
2023/10/10 01:51:24;;;;;;;1.37;1.27;;;;;;;;;;5113087;28;20525;-62
2023/10/10 01:53:55;;;;;;;1.63;1.27;;;;;;;;;;5113397;28;20471;-62
2023/10/10 01:56:25;;;;;;;1.33;1.27;;;;;;;;;;5113326;28;20851;-62
2023/10/10 01:58:53;;;;;;;1.47;1.37;;;;;;;;;;5112589;28;20488;-62
2023/10/10 02:01:23;;;;;;;0.80;0.80;;;;;;;;;;5113367;28;20447;-62
2023/10/10 02:03:53;;;;;;;0.80;0.80;;;;;;;;;;5112949;28;20760;-62
2023/10/10 02:06:25;;;;;;;1.33;1.33;;;;;;;;;;5113118;28;20438;-62
2023/10/10 02:08:56;;;;;;;1.10;1.00;;;;;;;;;;5112858;28;20903;-62
2023/10/10 02:11:23;;;;;;;0.80;0.80;;;;;;;;;;5113785;28;20452;-62
2023/10/10 02:13:50;;;;;;;1.77;1.47;;;;;;;;;;5116694;28;20497;-62
2023/10/10 02:16:18;;;;;;;1.97;1.87;;;;;;;;;;5116443;28;20951;-62
2023/10/10 02:18:50;;;;;;;2.10;2.00;;;;;;;;;;5116666;28;20509;-62
2023/10/10 02:21:31;;;;;;;0.80;0.80;;;;;;;;;;5116700;28;20434;-62
2023/10/10 02:24:12;;;;;;;3.13;3.03;;;;;;;;;;5116913;28;20433;-62
2023/10/10 02:26:40;;;;;;;1.83;1.73;;;;;;;;;;5116876;28;20445;-62
2023/10/10 02:29:34;;;;;;;0.80;0.80;;;;;;;;;;5116784;28;20445;-62
2023/10/10 02:32:09;;;;;;;0.80;0.80;;;;;;;;;;5116047;28;20456;-62
2023/10/10 02:34:36;;;;;;;1.23;1.13;;;;;;;;;;5116339;28;20474;-62
2023/10/10 02:37:13;;;;;;;0.70;0.70;;;;;;;;;;5116348;28;20438;-62
2023/10/10 02:39:48;;;;;;;0.80;0.80;;;;;;;;;;5116710;28;20783;-62
2023/10/10 02:42:19;;;;;;;1.77;1.67;;;;;;;;;;5115867;28;20458;-62
2023/10/10 02:44:57;;;;;;;0.87;0.87;;;;;;;;;;5116593;28;20424;-62
2023/10/10 02:47:32;;;;;;;0.90;0.90;;;;;;;;;;5116002;28;20617;-62
2023/10/10 02:50:09;;;;;;;1.20;1.07;;;;;;;;;;5116165;28;20464;-62
2023/10/10 02:52:39;;;;;;;1.93;1.83;;;;;;;;;;5115934;28;20472;-62
2023/10/10 02:55:14;;;;;;;1.73;1.63;;;;;;;;;;5116066;28;20833;-62
2023/10/10 02:57:41;;;;;;;1.53;1.43;;;;;;;;;;5116072;28;20944;-62
2023/10/10 03:00:27;;;;;;;0.80;0.80;;;;;;;;;;5115796;28;20471;-62
2023/10/10 03:02:57;;;;;;;0.90;0.90;;;;;;;;;;5115657;28;20436;-62
2023/10/10 03:08:13;;;;;;;1.00;0.90;;;;;;;;;;5115416;28;20449;-62
2023/10/10 03:10:45;;;;;;;1.20;1.20;;;;;;;;;;5115641;28;20417;-62
2023/10/10 03:13:30;;;;;;;2.30;1.47;;;;;;;;;;5115185;28;21003;-62
2023/10/10 03:16:11;;;;;;;1.60;1.50;;;;;;;;;;5116082;28;20426;-62
2023/10/10 03:18:43;;;;;;;0.97;0.97;;;;;;;;;;5115220;28;20432;-62
2023/10/10 03:21:23;;;;;;;0.80;0.80;;;;;;;;;;5115508;28;20412;-67
2023/10/10 03:23:54;;;;;;;0.70;0.70;;;;;;;;;;5114817;28;20437;-61
2023/10/10 03:26:34;;;;;;;1.00;1.00;;;;;;;;;;5116171;28;20487;-63
2023/10/10 03:29:04;;;;;;;0.80;0.80;;;;;;;;;;5115175;28;20453;-62
2023/10/10 03:31:41;;;;;;;2.47;2.30;;;;;;;;;;5115517;28;20431;-62
2023/10/10 03:34:18;;;;;;;1.00;1.00;;;;;;;;;;5114935;28;20564;-62
2023/10/10 03:36:46;;;;;;;1.50;1.40;;;;;;;;;;5115782;28;20815;-62
2023/10/10 03:39:17;;;;;;;0.73;0.73;;;;;;;;;;5105394;28;20474;-62
2023/10/10 05:23:35;;;;;;;1.10;1.10;;;;;;;;;;5113050;28;20401;-63
2023/10/10 05:26:05;;;;;;;2.40;2.20;;;;;;;;;;5112896;28;20449;-63
2023/10/10 05:28:33;;;;;;;1.17;1.17;;;;;;;;;;5112908;28;20449;-63
2023/10/10 05:31:02;;;;;;;0.80;0.80;;;;;;;;;;5112679;28;20445;-63
2023/10/10 05:33:30;;;;;;;1.83;1.33;;;;;;;;;;5112877;28;20472;-63
2023/10/10 05:36:06;;;;;;;0.90;0.90;;;;;;;;;;5112114;27;20553;-63
2023/10/10 05:38:35;;;;;;;0.80;0.80;;;;;;;;;;5112535;28;20434;-63
2023/10/10 05:41:06;;;;;;;1.13;1.10;;;;;;;;;;5113143;28;20863;-64
2023/10/10 05:43:34;;;;;;;0.80;0.80;;;;;;;;;;5113236;28;20510;-63
2023/10/10 05:46:03;;;;;;;1.67;1.57;;;;;;;;;;5113799;28;20437;-63
2023/10/10 05:48:31;;;;;;;0.80;0.80;;;;;;;;;;5116614;28;20535;-63
2023/10/10 05:50:58;;;;;;;1.97;1.87;;;;;;;;;;5116929;28;20524;-63
2023/10/10 05:53:27;;;;;;;0.80;0.80;;;;;;;;;;5116607;28;20468;-63
2023/10/10 05:55:58;;;;;;;1.83;1.73;;;;;;;;;;5115810;27;20536;-62
2023/10/10 05:58:25;;;;;;;2.07;1.97;;;;;;;;;;5116314;28;20537;-62
2023/10/10 06:00:54;;;;;;;1.10;1.10;;;;;;;;;;5116216;28;20516;-63
2023/10/10 06:03:22;;;;;;;1.93;1.83;;;;;;;;;;5116694;28;20436;-63
2023/10/10 06:05:50;;;;;;;1.40;1.33;;;;;;;;;;5116700;28;20444;-63
2023/10/10 06:08:18;;;;;;;1.57;1.50;;;;;;;;;;5116596;28;20434;-63
2023/10/10 06:10:48;;;;;;;0.80;0.80;;;;;;;;;;5115936;28;20476;-63
2023/10/10 06:13:15;;;;;;;4.00;3.50;;;;;;;;;;5116328;28;20575;-63
2023/10/10 06:15:43;;;;;;;0.80;0.80;;;;;;;;;;5115377;27;20445;-63
2023/10/10 06:18:12;;;;;;;1.73;1.63;;;;;;;;;;5116180;28;20998;-63
2023/10/10 06:20:43;;;;;;;0.80;0.80;;;;;;;;;;5115858;28;20782;-63
2023/10/10 06:23:11;;;;;;;0.80;0.80;;;;;;;;;;5116938;28;20943;-63
2023/10/10 06:25:38;;;;;;;1.67;1.57;;;;;;;;;;5116389;28;20499;-63
2023/10/10 06:28:22;;;;;;;1.00;1.00;;;;;;;;;;5116082;28;20434;-63
2023/10/10 06:30:52;;;;;;;2.03;1.93;;;;;;;;;;5115751;28;20923;-63
2023/10/10 06:33:27;;;;;;;1.47;1.43;;;;;;;;;;5115781;28;20470;-63
2023/10/10 06:35:54;;;;;;;1.80;1.70;;;;;;;;;;5115091;27;20483;-63
2023/10/10 06:38:24;;;;;;;1.20;1.10;;;;;;;;;;5115597;28;20559;-63
2023/10/10 06:40:54;;;;;;;1.10;1.10;;;;;;;;;;5116010;28;21021;-63
2023/10/10 06:43:22;;;;;;;1.00;0.90;;;;;;;;;;5115924;28;20916;-63
2023/10/10 06:45:54;;;;;;;1.33;1.23;;;;;;;;;;5115983;28;20445;-63
2023/10/10 06:48:22;;;;;;;1.30;1.20;;;;;;;;;;5116266;28;20488;-63
2023/10/10 06:50:50;;;;;;;0.80;0.80;;;;;;;;;;5115795;28;20444;-63
2023/10/10 06:53:34;;;;;;;3.70;3.50;;;;;;;;;;5115625;28;20429;-64
2023/10/10 06:56:14;;;;;;;1.37;1.27;;;;;;;;;;5105479;28;20527;-64
2023/10/10 06:58:43;;;;;;;0.90;0.90;;;;;;;;;;5096006;28;20459;-65
2023/10/10 07:01:11;;;;;;;1.10;1.10;;;;;;;;;;5095216;28;20441;-66
2023/10/10 07:03:41;;;;;;;1.00;1.00;;;;;;;;;;5095417;28;20533;-64
2023/10/10 07:06:09;;;;;;;1.43;1.20;;;;;;;;;;5095371;28;20836;-63
2023/10/10 07:08:36;;;;;;;2.83;2.73;;;;;;;;;;5095303;28;20837;-63
2023/10/10 07:11:04;;;;;;;1.10;1.10;;;;;;;;;;5094751;28;20483;-66
2023/10/10 07:13:32;;;;;;;1.60;1.50;;;;;;;;;;5094700;28;20464;-65
2023/10/10 07:16:01;;;;;;;1.73;1.63;;;;;;;;;;5095123;28;20841;-65
2023/10/10 07:18:30;;;;;;;1.67;1.50;;;;;;;;;;5094748;28;20449;-64
2023/10/10 07:21:26;;;;;;;1.83;1.47;;;;;;;;;;5094733;28;20497;-67
2023/10/10 07:24:05;;;;;;;0.97;0.97;;;;;;;;;;5095420;28;20438;-69
2023/10/10 07:26:41;;;;;;;1.10;1.00;;;;;;;;;;5094516;28;20431;-62
2023/10/10 07:32:15;;;;;;;1.80;1.70;;;;;;;;;;5151848;27;20542;-61
2023/10/10 07:34:49;;;;;;;1.50;1.40;;;;;;;;;;5152064;27;20456;-61
2023/10/10 07:37:16;;;;;;;1.13;1.07;;;;;;;;;;5151889;27;20447;-61
2023/10/10 07:39:56;;;;;;;0.97;0.97;;;;;;;;;;5151617;27;20486;-61
2023/10/10 07:42:27;;;;;;;1.70;1.60;;;;;;;;;;5151907;27;20826;-61
2023/10/10 07:44:55;;;;;;;2.30;1.00;;;;;;;;;;5151613;27;20906;-60
2023/10/10 07:47:27;;;;;;;3.77;2.40;;;;;;;;;;5151674;27;20467;-62
2023/10/10 07:49:54;;;;;;;1.10;1.10;;;;;;;;;;5152248;27;20896;-64
2023/10/10 07:52:22;;;;;;;1.50;1.40;;;;;;;;;;5151359;27;20433;-61
2023/10/10 07:54:53;;;;;;;4.03;3.53;;;;;;;;;;5151590;27;20436;-65
2023/10/10 07:57:25;;;;;;;2.03;1.93;;;;;;;;;;5151617;27;20460;-62
2023/10/10 07:59:56;;;;;;;2.33;2.13;;;;;;;;;;5151822;27;20433;-63
2023/10/10 08:02:31;;;;;;;0.80;0.80;;;;;;;;;;5151315;27;20437;-63
2023/10/10 08:05:01;;;;;;;1.80;1.70;;;;;;;;;;5151333;27;20431;-63
2023/10/10 08:07:28;;;;;;;1.60;1.50;;;;;;;;;;5150977;27;20433;-62
2023/10/10 08:12:37;;;;;;;2.00;1.90;;;;;;;;;;5150796;27;20421;-63
2023/10/10 08:15:18;;;;;;;2.23;2.13;;;;;;;;;;5151378;27;20512;-62
2023/10/10 08:17:52;;;;;;;0.90;0.90;;;;;;;;;;5151478;27;20457;-61
2023/10/10 08:20:34;;;;;;;1.27;1.17;;;;;;;;;;5151261;27;20770;-62
2023/10/10 08:23:02;;;;;;;2.03;1.93;;;;;;;;;;5150728;27;20413;-62
2023/10/10 08:25:29;;;;;;;2.23;2.13;;;;;;;;;;5151303;27;20492;-62
2023/10/10 08:27:58;;;;;;;1.50;1.40;;;;;;;;;;5150983;27;20425;-62
2023/10/10 08:30:26;;;;;;;1.33;1.27;;;;;;;;;;5150356;27;20513;-65
2023/10/10 08:32:56;;;;;;;1.67;1.57;;;;;;;;;;5150750;27;20473;-63
2023/10/10 08:35:23;;;;;;;1.90;1.80;;;;;;;;;;5150548;27;20436;-66
2023/10/10 08:37:51;;;;;;;2.40;2.20;;;;;;;;;;5150611;27;20468;-64
2023/10/10 08:40:20;;;;;;;2.03;1.83;;;;;;;;;;5150850;27;20437;-66
2023/10/10 08:42:49;;;;;;;0.80;0.80;;;;;;;;;;5140365;27;20485;-64
2023/10/10 08:45:23;;;;;;;2.30;2.20;;;;;;;;;;5136907;27;20434;-65
2023/10/10 08:47:52;;;;;;;1.77;1.67;;;;;;;;;;5136871;27;20412;-70
2023/10/10 08:50:24;;;;;;;1.60;1.50;;;;;;;;;;5136253;27;20473;-63
2023/10/10 08:52:51;;;;;;;1.20;1.13;;;;;;;;;;5136668;27;20755;-65
2023/10/10 08:55:26;;;;;;;1.43;1.33;;;;;;;;;;5136417;27;20473;-63
2023/10/10 08:57:55;;;;;;;1.33;1.27;;;;;;;;;;5136358;27;20898;-63
2023/10/10 09:00:26;;;;;;;1.63;1.53;;;;;;;;;;5136921;27;20449;-63
2023/10/10 09:02:55;;;;;;;3.40;3.20;;;;;;;;;;5136614;27;20433;-68
2023/10/10 09:05:23;;;;;;;2.03;1.93;;;;;;;;;;5136594;27;20444;-68
2023/10/10 09:07:53;;;;;;;1.53;1.43;;;;;;;;;;5136431;27;20441;-65
2023/10/10 09:10:28;;;;;;;1.30;1.30;;;;;;;;;;5136255;27;20429;-65
2023/10/10 09:12:56;;;;;;;4.10;2.93;;;;;;;;;;5137009;27;20774;-66
2023/10/10 09:15:24;;;;;;;1.00;1.00;;;;;;;;;;5136786;27;20430;-65
2023/10/10 09:17:55;;;;;;;1.90;1.57;;;;;;;;;;5135832;27;20430;-62
2023/10/10 09:20:30;;;;;;;1.10;1.10;;;;;;;;;;5135991;27;20423;-62
2023/10/10 09:23:02;;;;;;;0.90;0.90;;;;;;;;;;5135797;27;20448;-62
2023/10/10 09:25:42;;;;;;;2.00;1.90;;;;;;;;;;5135554;27;20425;-62
2023/10/10 09:28:11;;;;;;;0.70;0.70;;;;;;;;;;5136107;27;20418;-62
2023/10/10 09:30:45;;;;;;;1.37;1.27;;;;;;;;;;5135407;27;20482;-63
2023/10/10 09:33:22;;;;;;;2.50;2.30;;;;;;;;;;5135845;27;20470;-63
2023/10/10 09:35:54;;;;;;;1.73;1.63;;;;;;;;;;5135928;27;20510;-62
2023/10/10 09:38:26;;;;;;;1.90;1.43;;;;;;;;;;5135904;27;20433;-62
2023/10/10 09:41:10;;;;;;;1.93;1.80;;;;;;;;;;5136293;27;20444;-62
2023/10/10 09:43:49;;;;;;;1.07;1.07;;;;;;;;;;5135747;27;20495;-62
2023/10/10 09:46:19;;;;;;;1.30;1.20;;;;;;;;;;5135454;27;20569;-66
2023/10/10 09:49:17;;;;;;;1.43;1.33;;;;;;;;;;5136395;27;20472;-62
2023/10/10 09:54:35;;;;;;;1.00;1.00;;;;;;;;;;5134218;27;20389;-66
2023/10/10 09:57:08;;;;;;;0.80;0.80;;;;;;;;;;5136124;27;20433;-67
2023/10/10 09:59:37;;;;;;;1.33;1.23;;;;;;;;;;5136445;27;20434;-71
2023/10/10 10:02:06;;;;;;;1.20;1.10;;;;;;;;;;5135508;27;20495;-69
2023/10/10 10:04:41;;;;;;;1.10;1.07;;;;;;;;;;5135544;27;20754;-71
2023/10/10 10:07:29;;;;;;;1.03;1.00;;;;;;;;;;5135698;27;20501;-65
2023/10/10 10:10:20;;;;;;;0.80;0.80;;;;;;;;;;5128022;27;20444;-65
2023/10/10 10:13:13;;;;;;;0.93;0.93;;;;;;;;;;5135114;27;20772;-63
2023/10/10 10:15:49;;;;;;;0.87;0.87;;;;;;;;;;5135123;27;20784;-63
2023/10/10 10:18:26;;;;;;;1.00;1.00;;;;;;;;;;5134476;27;20426;-63
2023/10/10 10:21:18;;;;;;;1.63;1.33;;;;;;;;;;5135011;27;20433;-63
2023/10/10 10:23:55;;;;;;;1.93;1.83;;;;;;;;;;5134374;27;20426;-63
2023/10/10 10:26:35;;;;;;;3.70;2.13;;;;;;;;;;5134427;27;20433;-63
2023/10/10 10:29:15;;;;;;;1.20;1.10;;;;;;;;;;5134952;27;20422;-63
2023/10/10 10:31:49;;;;;;;0.70;0.70;;;;;;;;;;5134566;27;20584;-64
2023/10/10 10:34:23;;;;;;;0.70;0.70;;;;;;;;;;5135288;27;20504;-62
2023/10/10 10:36:54;;;;;;;1.33;1.00;;;;;;;;;;5135151;27;20419;-63
2023/10/10 10:39:25;;;;;;;0.93;0.93;;;;;;;;;;5133564;27;20533;-62
2023/10/10 10:41:55;;;;;;;0.70;0.70;;;;;;;;;;5134215;27;20521;-63
2023/10/10 10:44:44;;;;;;;0.70;0.70;;;;;;;;;;5133783;27;20460;-63
2023/10/10 10:47:12;;;;;;;0.80;0.80;;;;;;;;;;5134404;27;20509;-64
2023/10/10 10:49:40;;;;;;;0.80;0.80;;;;;;;;;;5133604;27;20436;-63
2023/10/10 10:52:17;;;;;;;0.80;0.80;;;;;;;;;;5134104;27;20828;-64
2023/10/10 10:54:45;;;;;;;0.90;0.90;;;;;;;;;;5134288;27;20429;-65
2023/10/10 10:57:27;;;;;;;1.00;1.00;;;;;;;;;;5133929;27;20579;-64
2023/10/10 10:59:55;;;;;;;0.97;0.97;;;;;;;;;;5134262;27;20442;-64
2023/10/10 11:02:30;;;;;;;0.90;0.90;;;;;;;;;;5133859;27;20437;-64
2023/10/10 11:04:57;;;;;;;0.90;0.90;;;;;;;;;;5134058;27;20409;-64
2023/10/10 11:07:40;;;;;;;0.70;0.70;;;;;;;;;;5133856;27;20506;-64
2023/10/10 11:10:08;;;;;;;1.20;1.10;;;;;;;;;;5133961;27;20429;-64
2023/10/10 11:12:40;;;;;;;1.87;1.73;;;;;;;;;;5133700;27;20906;-64
2023/10/10 11:15:10;;;;;;;1.30;1.20;;;;;;;;;;5134174;27;20472;-64
2023/10/10 11:17:42;;;;;;;0.90;0.90;;;;;;;;;;5133781;27;20433;-64
2023/10/10 11:23:08;;;;;;;0.80;0.80;;;;;;;;;;5133934;27;20890;-64
2023/10/10 11:25:45;;;;;;;2.03;1.43;;;;;;;;;;5134518;27;20747;-64
2023/10/10 11:28:24;;;;;;;1.00;1.00;;;;;;;;;;5133979;27;20436;-64
2023/10/10 11:30:52;;;;;;;5.33;1.50;;;;;;;;;;5133641;28;20554;-64
2023/10/10 11:33:46;;;;;;;6.83;1.47;;;;;;;;;;5133845;28;20479;-64
2023/10/10 11:36:39;;;;;;;0.70;0.70;;;;;;;;;;5134322;28;20419;-64
2023/10/10 11:39:17;;;;;;;0.80;0.80;;;;;;;;;;5134494;28;20434;-64
2023/10/10 11:41:46;;;;;;;6.00;1.20;;;;;;;;;;5133906;28;20902;-64
2023/10/10 11:44:18;;;;;;;2.07;1.97;;;;;;;;;;5133410;28;20922;-64
2023/10/10 11:46:46;;;;;;;0.70;0.70;;;;;;;;;;5134138;28;20826;-64
2023/10/10 11:49:16;;;;;;;0.97;0.97;;;;;;;;;;5133814;28;20846;-64
2023/10/10 11:51:43;;;;;;;1.83;1.73;;;;;;;;;;5133369;28;20465;-64
2023/10/10 11:54:10;;;;;;;0.80;0.80;;;;;;;;;;5133324;28;20516;-64
2023/10/10 11:56:38;;;;;;;1.17;1.10;;;;;;;;;;5133839;28;20430;-64
2023/10/10 11:59:09;;;;;;;0.70;0.70;;;;;;;;;;5133359;28;20434;-64
2023/10/10 12:01:54;;;;;;;3.33;1.90;;;;;;;;;;5134255;28;20525;-64
2023/10/10 12:04:30;;;;;;;0.80;0.80;;;;;;;;;;5133675;27;20896;-64
2023/10/10 12:06:59;;;;;;;0.80;0.80;;;;;;;;;;5133686;28;20422;-65
2023/10/10 12:09:26;;;;;;;0.70;0.70;;;;;;;;;;5133645;28;20438;-64
2023/10/10 12:11:59;;;;;;;1.33;1.23;;;;;;;;;;5133246;28;20469;-64
2023/10/10 12:14:29;;;;;;;0.70;0.70;;;;;;;;;;5133578;28;20926;-64
2023/10/10 12:17:05;;;;;;;1.00;1.00;;;;;;;;;;5134320;27;20470;-64
2023/10/10 12:19:36;;;;;;;0.80;0.80;;;;;;;;;;5137719;27;20543;-64
2023/10/10 12:22:07;;;;;;;0.87;0.87;;;;;;;;;;5137130;27;20965;-64
2023/10/10 12:24:35;;;;;;;1.53;1.43;;;;;;;;;;5137051;27;20423;-64
2023/10/10 12:27:07;;;;;;;1.07;0.97;;;;;;;;;;5137339;27;20532;-64
2023/10/10 12:29:34;;;;;;;0.83;0.83;;;;;;;;;;5137179;27;20426;-64
2023/10/10 12:32:14;;;;;;;0.80;0.80;;;;;;;;;;5137227;27;20496;-64
2023/10/10 12:34:42;;;;;;;0.80;0.80;;;;;;;;;;5137252;27;20419;-64
2023/10/10 12:37:09;;;;;;;1.57;1.10;;;;;;;;;;5136836;27;20434;-64
2023/10/10 12:39:37;;;;;;;1.10;1.00;;;;;;;;;;5137097;27;20445;-64
2023/10/10 12:42:07;;;;;;;1.13;1.13;;;;;;;;;;5136852;27;20446;-67
2023/10/10 12:44:34;;;;;;;1.80;1.30;;;;;;;;;;5136679;27;20437;-65
2023/10/10 12:47:06;;;;;;;0.70;0.70;;;;;;;;;;5137286;27;20466;-67
2023/10/10 12:49:36;;;;;;;2.07;1.07;;;;;;;;;;5136895;27;20925;-65
2023/10/10 12:52:11;;;;;;;0.87;0.87;;;;;;;;;;5137053;27;20462;-67
2023/10/10 12:54:38;;;;;;;2.93;2.30;;;;;;;;;;5137068;27;20483;-67
2023/10/10 12:57:13;;;;;;;1.10;1.00;;;;;;;;;;5136689;27;20971;-72
2023/10/10 12:59:46;;;;;;;0.80;0.80;;;;;;;;;;5137049;27;20423;-66
2023/10/10 13:02:16;;;;;;;0.70;0.70;;;;;;;;;;5137033;27;20496;-68
2023/10/10 13:04:46;;;;;;;1.83;1.73;;;;;;;;;;5136789;27;20418;-66
2023/10/10 13:07:16;;;;;;;0.73;0.73;;;;;;;;;;5137363;27;20505;-64
2023/10/10 13:09:46;;;;;;;0.70;0.70;;;;;;;;;;5136853;27;20510;-64
2023/10/10 13:12:26;;;;;;;0.70;0.70;;;;;;;;;;5136275;27;20973;-65
2023/10/10 13:15:16;;;;;;;0.80;0.80;;;;;;;;;;5137098;27;20419;-64
2023/10/10 13:17:53;;;;;;;0.70;0.70;;;;;;;;;;5136573;27;20428;-64
2023/10/10 13:20:21;;;;;;;1.30;1.20;;;;;;;;;;5136149;27;20487;-64
2023/10/10 13:22:50;;;;;;;0.80;0.80;;;;;;;;;;5136064;27;20857;-65
2023/10/10 13:25:18;;;;;;;1.40;1.30;;;;;;;;;;5136335;27;20478;-64
2023/10/10 13:27:46;;;;;;;3.23;1.00;;;;;;;;;;5136214;27;20940;-64
2023/10/10 13:30:14;;;;;;;1.27;1.20;;;;;;;;;;5135823;27;20474;-61
2023/10/10 13:32:42;;;;;;;0.70;0.70;;;;;;;;;;5136807;27;20469;-64
2023/10/10 13:35:11;;;;;;;0.70;0.70;;;;;;;;;;5135865;27;20538;-64
2023/10/10 13:37:41;;;;;;;0.77;0.77;;;;;;;;;;5136054;27;20510;-64
2023/10/10 13:40:09;;;;;;;1.13;1.10;;;;;;;;;;5136197;27;20473;-67
2023/10/10 13:42:40;;;;;;;1.20;1.10;;;;;;;;;;5135733;27;20443;-64
2023/10/10 13:45:11;;;;;;;1.63;1.53;;;;;;;;;;5135741;27;20435;-64
2023/10/10 13:47:40;;;;;;;0.70;0.70;;;;;;;;;;5136512;27;20428;-65
2023/10/10 13:52:58;;;;;;;0.80;0.80;;;;;;;;;;5135972;27;20470;-66
2023/10/10 13:55:29;;;;;;;0.83;0.83;;;;;;;;;;5135900;27;20765;-64
2023/10/10 13:57:57;;;;;;;0.73;0.73;;;;;;;;;;5136429;27;20881;-65
2023/10/10 14:00:29;;;;;;;0.97;0.97;;;;;;;;;;5135994;27;20463;-66
2023/10/10 14:03:03;;;;;;;1.77;1.67;;;;;;;;;;5135983;27;20428;-64
2023/10/10 14:05:32;;;;;;;1.33;0.80;;;;;;;;;;5136190;27;20423;-63
2023/10/10 14:08:03;;;;;;;1.10;1.00;;;;;;;;;;5135250;27;20443;-65
2023/10/10 14:10:35;;;;;;;0.87;0.87;;;;;;;;;;5135284;27;20977;-63
2023/10/10 14:13:18;;;;;;;0.97;0.97;;;;;;;;;;5135986;27;20559;-65
2023/10/10 14:15:54;;;;;;;0.80;0.80;;;;;;;;;;5136098;27;20428;-65
2023/10/10 14:18:21;;;;;;;0.70;0.70;;;;;;;;;;5135936;27;20420;-64
2023/10/10 14:20:50;;;;;;;1.40;1.30;;;;;;;;;;5135016;27;20433;-63
2023/10/10 14:23:20;;;;;;;0.83;0.83;;;;;;;;;;5135345;27;20799;-63
2023/10/10 14:25:48;;;;;;;0.90;0.90;;;;;;;;;;5134980;27;20426;-63
2023/10/10 14:28:17;;;;;;;0.70;0.60;;;;;;;;;;5136076;27;20577;-63
2023/10/10 14:30:44;;;;;;;2.20;2.10;;;;;;;;;;5135036;27;20476;-63
2023/10/10 14:33:12;;;;;;;0.70;0.70;;;;;;;;;;5135406;27;20468;-65
2023/10/10 14:35:39;;;;;;;0.70;0.70;;;;;;;;;;5135035;27;20521;-69
2023/10/10 14:38:07;;;;;;;2.40;0.90;;;;;;;;;;5134591;27;20834;-68
2023/10/10 14:40:36;;;;;;;1.40;1.30;;;;;;;;;;5134573;27;20463;-67
2023/10/10 14:43:06;;;;;;;0.70;0.70;;;;;;;;;;5134528;27;20519;-67
2023/10/10 14:45:34;;;;;;;0.70;0.70;;;;;;;;;;5135118;27;20518;-67
2023/10/10 14:48:05;;;;;;;0.70;0.70;;;;;;;;;;5134109;27;20833;-67
2023/10/10 14:50:37;;;;;;;0.70;0.70;;;;;;;;;;5134745;27;20424;-67
2023/10/10 14:53:08;;;;;;;1.23;1.13;;;;;;;;;;5134517;27;20465;-69
2023/10/10 14:55:44;;;;;;;0.70;0.70;;;;;;;;;;5134567;27;20432;-77
2023/10/10 14:58:12;;;;;;;0.70;0.70;;;;;;;;;;5134894;27;20504;-68
2023/10/10 15:00:41;;;;;;;1.10;0.90;;;;;;;;;;5134438;27;20441;-68
2023/10/10 15:03:12;;;;;;;1.00;1.00;;;;;;;;;;5134109;27;20933;-70
2023/10/10 15:05:50;;;;;;;1.20;1.10;;;;;;;;;;5133058;27;20509;-68
2023/10/10 15:08:17;;;;;;;0.70;0.70;;;;;;;;;;5134327;27;20441;-67
2023/10/10 15:10:46;;;;;;;1.30;1.10;;;;;;;;;;5134265;27;20468;-72
2023/10/10 15:13:15;;;;;;;0.80;0.80;;;;;;;;;;5133889;27;20473;-66
2023/10/10 15:15:45;;;;;;;0.70;0.70;;;;;;;;;;5134548;27;20473;-71
2023/10/10 15:18:14;;;;;;;0.90;0.90;;;;;;;;;;5134263;27;20449;-68
2023/10/10 15:20:46;;;;;;;0.70;0.70;;;;;;;;;;5134419;27;20436;-67
2023/10/10 15:23:15;;;;;;;0.80;0.80;;;;;;;;;;5134834;27;20497;-67
2023/10/10 15:25:42;;;;;;;1.17;1.07;;;;;;;;;;5134397;27;20434;-66
2023/10/10 15:28:11;;;;;;;1.17;1.17;;;;;;;;;;5133820;27;20440;-66
2023/10/10 15:30:41;;;;;;;0.80;0.80;;;;;;;;;;5133725;28;20798;-66
2023/10/10 15:33:10;;;;;;;1.20;1.10;;;;;;;;;;5133998;28;20827;-66
2023/10/10 15:35:39;;;;;;;0.70;0.70;;;;;;;;;;5133699;28;20450;-66
2023/10/10 15:38:09;;;;;;;3.10;1.80;;;;;;;;;;5133703;28;20450;-66
2023/10/10 15:40:39;;;;;;;1.87;1.77;;;;;;;;;;5133887;28;20499;-66
2023/10/10 15:43:11;;;;;;;0.70;0.70;;;;;;;;;;5134091;28;20788;-66
2023/10/10 15:45:40;;;;;;;0.80;0.80;;;;;;;;;;5133947;27;20721;-66
2023/10/10 15:48:21;;;;;;;0.90;0.90;;;;;;;;;;5133580;28;20454;-66
2023/10/10 15:50:50;;;;;;;1.00;1.00;;;;;;;;;;5133796;27;20829;-66
2023/10/10 15:53:18;;;;;;;1.20;1.10;;;;;;;;;;5136464;27;20466;-66
2023/10/10 15:55:45;;;;;;;1.30;1.20;;;;;;;;;;5138158;27;20788;-66
2023/10/10 15:58:12;;;;;;;0.70;0.70;;;;;;;;;;5138186;27;20837;-66
2023/10/10 16:00:43;;;;;;;1.50;1.40;;;;;;;;;;5138171;27;20477;-66
2023/10/10 16:03:12;;;;;;;0.80;0.80;;;;;;;;;;5137857;27;20423;-66
2023/10/10 16:05:41;;;;;;;1.33;1.23;;;;;;;;;;5137588;27;20490;-66
2023/10/10 16:08:08;;;;;;;0.83;0.83;;;;;;;;;;5138741;27;20481;-66
2023/10/10 16:10:36;;;;;;;1.10;1.00;;;;;;;;;;5138515;27;20460;-66
2023/10/10 16:13:06;;;;;;;2.67;1.90;;;;;;;;;;5138122;27;20553;-66
2023/10/10 16:15:34;;;;;;;0.70;0.70;;;;;;;;;;5137636;27;20428;-66
2023/10/10 16:18:04;;;;;;;0.90;0.90;;;;;;;;;;5137938;27;20775;-66
2023/10/10 16:20:35;;;;;;;0.90;0.90;;;;;;;;;;5138401;27;20439;-66
2023/10/10 16:23:02;;;;;;;0.90;0.90;;;;;;;;;;5137823;27;20898;-66
2023/10/10 16:25:30;;;;;;;0.70;0.70;;;;;;;;;;5137846;27;20924;-66
2023/10/10 16:27:57;;;;;;;0.80;0.80;;;;;;;;;;5137624;27;20542;-66
2023/10/10 16:30:27;;;;;;;1.17;1.07;;;;;;;;;;5137640;27;20854;-66
2023/10/10 16:32:55;;;;;;;1.17;1.07;;;;;;;;;;5137040;27;20958;-66
2023/10/10 16:35:24;;;;;;;0.70;0.70;;;;;;;;;;5137428;27;20576;-66
2023/10/10 16:37:53;;;;;;;1.33;1.23;;;;;;;;;;5137073;27;20474;-66
2023/10/10 16:40:21;;;;;;;1.00;1.00;;;;;;;;;;5137355;27;20618;-66
2023/10/10 16:42:49;;;;;;;1.53;1.43;;;;;;;;;;5137006;27;20447;-66
2023/10/10 16:45:17;;;;;;;1.30;1.20;;;;;;;;;;5137783;27;20444;-66
2023/10/10 16:47:45;;;;;;;3.23;2.10;;;;;;;;;;5137422;27;20451;-65
2023/10/10 16:50:12;;;;;;;1.23;1.23;;;;;;;;;;5137341;27;21038;-66
2023/10/10 16:52:41;;;;;;;0.80;0.80;;;;;;;;;;5136782;27;20529;-66
2023/10/10 16:55:10;;;;;;;1.00;1.00;;;;;;;;;;5137220;27;20441;-66
2023/10/10 16:57:38;;;;;;;2.83;2.47;;;;;;;;;;5137669;27;20448;-66
2023/10/10 17:00:13;;;;;;;1.47;1.37;;;;;;;;;;5136821;27;20468;-66
2023/10/10 17:02:40;;;;;;;0.70;0.70;;;;;;;;;;5136221;27;20982;-66
2023/10/10 17:05:11;;;;;;;0.80;0.80;;;;;;;;;;5137196;27;20592;-66
2023/10/10 17:07:41;;;;;;;0.80;0.80;;;;;;;;;;5137032;27;20505;-65